Time;durP1;ratioP1;P1;durP2;ratioP2;P2;SDS_P1;SDS_P2;PMS_P1;PMS_P2;Temp;Humidity;BMP_temperature;BMP_pressure;BME280_temperature;BME280_humidity;BME280_pressure;Samples;Min_cycle;Max_cycle;Signal;HPM_P1;HPM_P2
2023/12/12 00:00:29;;;;;;;26.85;6.32;;;10.10;99.90;;;;;;4901794;29;20028;-82
2023/12/12 00:02:55;;;;;;;22.02;6.88;;;10.20;99.90;;;;;;4903955;29;20388;-81
2023/12/12 00:05:21;;;;;;;18.83;5.43;;;10.30;99.90;;;;;;4905994;29;20123;-81
2023/12/12 00:07:47;;;;;;;22.40;6.30;;;10.20;99.90;;;;;;4904826;29;20489;-81
2023/12/12 00:10:13;;;;;;;12.00;4.88;;;10.20;99.90;;;;;;4901477;29;20738;-81
2023/12/12 00:12:42;;;;;;;21.25;5.70;;;10.20;99.90;;;;;;4901510;29;20093;-82
2023/12/12 00:15:08;;;;;;;19.42;4.65;;;10.20;99.90;;;;;;4905569;29;20051;-83
2023/12/12 00:17:34;;;;;;;16.67;4.70;;;10.20;99.90;;;;;;4904112;29;20035;-82
2023/12/12 00:20:00;;;;;;;22.48;4.70;;;10.20;99.90;;;;;;4905331;29;20180;-83
2023/12/12 00:22:26;;;;;;;15.13;3.47;;;10.20;99.90;;;;;;4906740;29;20029;-83
2023/12/12 00:24:51;;;;;;;17.67;3.75;;;10.20;99.90;;;;;;4908926;29;20042;-83
2023/12/12 00:27:17;;;;;;;13.73;3.97;;;10.20;99.90;;;;;;4910197;29;20345;-83
2023/12/12 00:29:45;;;;;;;15.05;3.28;;;10.10;99.90;;;;;;4907107;29;20040;-82
2023/12/12 00:32:10;;;;;;;16.83;4.03;;;10.20;99.90;;;;;;4902284;29;20032;-83
2023/12/12 00:34:37;;;;;;;11.15;3.10;;;10.20;99.90;;;;;;4905832;29;20036;-83
2023/12/12 00:37:03;;;;;;;14.15;3.05;;;10.20;99.90;;;;;;4904411;29;20095;-82
2023/12/12 00:39:29;;;;;;;13.82;3.33;;;10.20;99.90;;;;;;4903573;29;20106;-82
2023/12/12 00:41:54;;;;;;;16.98;3.63;;;10.20;99.90;;;;;;4906049;29;20055;-83
2023/12/12 00:44:20;;;;;;;16.95;3.25;;;10.30;99.90;;;;;;4910661;29;20024;-83
2023/12/12 00:46:45;;;;;;;12.80;2.97;;;10.30;99.90;;;;;;4903013;29;20040;-82
2023/12/12 00:49:11;;;;;;;10.57;3.03;;;10.30;99.90;;;;;;4905441;29;20028;-82
2023/12/12 00:51:37;;;;;;;15.98;4.20;;;10.30;99.90;;;;;;4911713;29;20706;-81
2023/12/12 00:54:02;;;;;;;16.25;3.20;;;10.30;99.90;;;;;;4913534;29;20048;-82
2023/12/12 00:56:28;;;;;;;15.32;3.22;;;10.30;99.90;;;;;;4905507;29;20095;-82
2023/12/12 00:58:54;;;;;;;10.52;3.20;;;10.30;99.90;;;;;;4903229;29;20059;-81
2023/12/12 01:01:19;;;;;;;8.10;2.47;;;10.30;99.90;;;;;;4904576;29;20051;-81
2023/12/12 01:03:45;;;;;;;11.50;2.65;;;10.30;99.90;;;;;;4907269;29;20523;-81
2023/12/12 01:06:23;;;;;;;11.43;2.80;;;10.30;99.90;;;;;;4905488;29;20031;-81
2023/12/12 01:08:48;;;;;;;12.75;3.47;;;10.20;99.90;;;;;;4903877;29;20388;-81
2023/12/12 01:11:14;;;;;;;14.02;3.00;;;10.20;99.90;;;;;;4900963;29;20035;-81
2023/12/12 01:13:40;;;;;;;9.43;3.17;;;10.20;99.90;;;;;;4905765;29;20485;-81
2023/12/12 01:16:06;;;;;;;15.55;4.00;;;10.30;99.90;;;;;;4904953;29;20042;-83
2023/12/12 01:18:32;;;;;;;12.13;4.18;;;10.30;99.90;;;;;;4919578;29;21003;-83
2023/12/12 01:20:58;;;;;;;13.18;4.15;;;10.20;99.90;;;;;;4929894;29;20169;-81
2023/12/12 01:23:23;;;;;;;11.70;4.13;;;10.20;99.90;;;;;;4929812;29;20048;-80
2023/12/12 01:25:49;;;;;;;14.40;4.43;;;10.30;99.90;;;;;;4931256;29;20028;-81
2023/12/12 01:28:15;;;;;;;13.40;4.95;;;10.30;99.90;;;;;;4904158;29;20036;-83
2023/12/12 01:30:40;;;;;;;17.45;4.80;;;10.30;99.90;;;;;;4903177;29;20158;-82
2023/12/12 01:33:06;;;;;;;18.92;5.00;;;10.30;99.90;;;;;;4905600;29;20046;-82
2023/12/12 01:35:32;;;;;;;13.73;4.55;;;10.30;99.90;;;;;;4906032;29;20091;-82
2023/12/12 01:37:57;;;;;;;13.85;4.57;;;10.30;99.90;;;;;;4907036;29;20039;-83
2023/12/12 01:40:23;;;;;;;20.90;5.30;;;10.40;99.90;;;;;;4906807;29;20040;-82
2023/12/12 01:42:49;;;;;;;15.80;5.95;;;10.40;99.90;;;;;;4902523;29;20032;-82
2023/12/12 01:45:14;;;;;;;14.95;5.90;;;10.40;99.90;;;;;;4906626;29;20115;-83
2023/12/12 01:47:40;;;;;;;16.67;5.95;;;10.40;99.90;;;;;;4906401;29;20051;-83
2023/12/12 01:50:07;;;;;;;18.45;6.40;;;10.40;99.90;;;;;;4906685;29;20463;-82
2023/12/12 01:52:34;;;;;;;15.20;6.72;;;10.50;99.90;;;;;;4907584;29;20482;-82
2023/12/12 01:54:59;;;;;;;19.42;6.63;;;10.40;99.90;;;;;;4909225;29;20083;-83
2023/12/12 01:57:26;;;;;;;17.27;6.75;;;10.50;99.90;;;;;;4905026;29;20044;-83
2023/12/12 01:59:52;;;;;;;22.45;6.85;;;10.50;99.90;;;;;;4906130;29;20045;-82
2023/12/12 02:02:19;;;;;;;14.98;6.78;;;10.40;99.90;;;;;;4899790;29;20099;-82
2023/12/12 02:04:47;;;;;;;16.85;6.32;;;10.40;99.90;;;;;;4903502;29;20048;-82
2023/12/12 02:07:13;;;;;;;17.38;6.03;;;10.50;99.90;;;;;;4905907;29;20167;-82
2023/12/12 02:09:39;;;;;;;15.52;6.30;;;10.50;99.90;;;;;;4901116;29;20040;-81
2023/12/12 02:12:05;;;;;;;19.85;7.43;;;10.50;99.90;;;;;;4901290;29;20048;-81
2023/12/12 02:14:33;;;;;;;15.90;7.38;;;10.40;99.90;;;;;;4911022;29;21739;-81
2023/12/12 02:16:59;;;;;;;17.42;7.50;;;10.50;99.90;;;;;;4908377;29;20404;-81
2023/12/12 02:19:24;;;;;;;16.85;6.70;;;10.50;99.90;;;;;;4899789;29;20036;-81
2023/12/12 02:21:50;;;;;;;17.48;6.43;;;10.30;99.90;;;;;;4905803;29;20042;-81
2023/12/12 02:24:16;;;;;;;14.07;7.03;;;10.50;99.90;;;;;;4903963;29;20046;-81
2023/12/12 02:26:41;;;;;;;21.73;8.25;;;10.50;99.90;;;;;;4901540;29;20039;-81
2023/12/12 02:29:08;;;;;;;16.80;6.50;;;10.50;99.90;;;;;;4901112;29;20039;-81
2023/12/12 02:31:33;;;;;;;15.13;6.32;;;10.50;99.90;;;;;;4902827;29;20095;-82
2023/12/12 02:33:59;;;;;;;14.00;6.50;;;10.60;99.90;;;;;;4903752;29;20230;-82
2023/12/12 02:36:24;;;;;;;15.68;6.57;;;10.60;99.90;;;;;;4905160;29;20036;-82
2023/12/12 02:38:50;;;;;;;13.77;6.03;;;10.70;99.90;;;;;;4903705;29;20078;-82
2023/12/12 02:41:16;;;;;;;14.18;5.82;;;10.70;99.90;;;;;;4905517;29;20499;-82
2023/12/12 02:43:41;;;;;;;13.30;6.28;;;10.80;99.90;;;;;;4902524;29;20039;-80
2023/12/12 02:46:07;;;;;;;17.17;6.90;;;10.80;99.90;;;;;;4901139;29;21439;-80
2023/12/12 02:48:33;;;;;;;16.95;7.10;;;10.80;99.90;;;;;;4905875;29;20234;-80
2023/12/12 02:50:58;;;;;;;16.95;6.75;;;10.90;99.90;;;;;;4901296;29;20120;-80
2023/12/12 02:53:24;;;;;;;16.95;7.20;;;10.90;99.90;;;;;;4907799;29;20496;-79
2023/12/12 02:55:49;;;;;;;19.30;7.03;;;11.00;99.90;;;;;;4901664;29;20388;-81
2023/12/12 02:58:15;;;;;;;17.85;6.38;;;11.00;99.90;;;;;;4902409;29;20397;-81
2023/12/12 03:00:41;;;;;;;21.42;7.30;;;11.00;99.90;;;;;;4898634;29;20039;-79
2023/12/12 03:03:06;;;;;;;12.32;5.00;;;11.10;99.90;;;;;;4900039;29;20031;-80
2023/12/12 03:05:32;;;;;;;15.30;5.07;;;11.20;99.90;;;;;;4898001;29;20055;-81
2023/12/12 03:07:57;;;;;;;13.32;4.57;;;11.30;99.90;;;;;;4901169;29;20477;-82
2023/12/12 03:10:23;;;;;;;12.98;5.65;;;11.40;99.90;;;;;;4898329;29;20031;-81
2023/12/12 03:12:49;;;;;;;14.10;4.70;;;11.50;99.90;;;;;;4899916;29;20566;-82
2023/12/12 03:15:14;;;;;;;11.38;4.43;;;11.50;99.90;;;;;;4905167;29;20465;-82
2023/12/12 03:17:40;;;;;;;17.35;5.05;;;11.60;99.90;;;;;;4903447;29;20488;-83
2023/12/12 03:20:07;;;;;;;15.20;4.70;;;11.60;99.90;;;;;;4904194;29;20050;-83
2023/12/12 03:22:32;;;;;;;17.00;4.55;;;11.60;99.90;;;;;;4904889;29;20036;-83
2023/12/12 03:24:58;;;;;;;16.05;4.40;;;11.60;99.90;;;;;;4915543;29;20031;-82
2023/12/12 03:27:24;;;;;;;17.73;6.30;;;11.70;99.90;;;;;;4921714;29;20028;-81
2023/12/12 03:29:49;;;;;;;23.85;7.68;;;11.60;99.90;;;;;;4913614;29;20036;-81
2023/12/12 03:32:15;;;;;;;18.42;6.97;;;11.70;99.90;;;;;;4903287;29;20047;-80
2023/12/12 03:34:40;;;;;;;17.27;7.05;;;11.70;99.90;;;;;;4901927;29;20046;-80
2023/12/12 03:37:06;;;;;;;24.08;6.95;;;11.60;99.90;;;;;;4900586;29;20035;-80
2023/12/12 03:39:32;;;;;;;19.15;7.47;;;11.70;99.90;;;;;;4904159;29;20050;-79
2023/12/12 03:41:57;;;;;;;23.67;8.23;;;11.70;99.90;;;;;;4904484;29;20059;-79
2023/12/12 03:44:23;;;;;;;23.80;6.72;;;11.50;99.90;;;;;;4903759;29;20238;-79
2023/12/12 03:46:48;;;;;;;21.42;7.45;;;11.70;99.90;;;;;;4906061;29;20111;-79
2023/12/12 03:49:14;;;;;;;23.27;8.60;;;11.70;99.90;;;;;;4906837;29;20258;-79
2023/12/12 03:51:40;;;;;;;25.25;8.32;;;11.60;99.90;;;;;;4912117;29;20064;-79
2023/12/12 03:54:05;;;;;;;16.90;7.10;;;11.60;99.90;;;;;;4913548;29;20075;-79
2023/12/12 03:56:31;;;;;;;18.08;6.82;;;11.60;99.90;;;;;;4904494;29;20032;-79
2023/12/12 03:58:58;;;;;;;22.73;6.97;;;11.60;99.90;;;;;;4904336;29;20416;-79
2023/12/12 04:01:24;;;;;;;17.42;6.47;;;11.60;99.90;;;;;;4904044;29;20119;-79
2023/12/12 04:03:49;;;;;;;18.70;6.53;;;11.60;99.90;;;;;;4906061;29;20559;-80
2023/12/12 04:06:18;;;;;;;21.58;5.90;;;11.60;99.90;;;;;;4905955;29;20028;-80
2023/12/12 04:08:44;;;;;;;17.10;5.97;;;11.60;99.90;;;;;;4904334;29;20404;-80
2023/12/12 04:11:10;;;;;;;17.60;6.03;;;11.50;99.90;;;;;;4904667;29;20099;-79
2023/12/12 04:13:35;;;;;;;22.70;5.88;;;11.60;99.90;;;;;;4904771;29;20056;-80
2023/12/12 04:16:01;;;;;;;11.57;5.28;;;11.60;99.90;;;;;;4907726;29;20044;-80
2023/12/12 04:18:26;;;;;;;14.00;4.57;;;11.60;99.90;;;;;;4908586;29;20032;-79
2023/12/12 04:20:52;;;;;;;12.52;4.95;;;11.60;99.90;;;;;;4905215;29;20439;-79
2023/12/12 04:23:18;;;;;;;13.05;4.72;;;11.50;99.90;;;;;;4903347;29;20607;-79
2023/12/12 04:25:44;;;;;;;15.75;5.05;;;11.60;99.90;;;;;;4909409;29;20023;-79
2023/12/12 04:28:10;;;;;;;13.40;4.43;;;11.60;99.90;;;;;;4907426;29;20392;-79
2023/12/12 04:30:35;;;;;;;11.85;3.63;;;11.50;99.90;;;;;;4900313;29;20063;-79
2023/12/12 04:33:01;;;;;;;10.57;3.90;;;11.50;99.90;;;;;;4902158;29;20051;-79
2023/12/12 04:35:26;;;;;;;14.32;5.15;;;11.50;99.90;;;;;;4904740;29;20028;-79
2023/12/12 04:37:52;;;;;;;12.52;5.13;;;11.50;99.90;;;;;;4906902;29;20032;-79
2023/12/12 04:40:18;;;;;;;10.32;4.35;;;11.50;99.90;;;;;;4902159;29;20146;-79
2023/12/12 04:42:44;;;;;;;14.55;4.65;;;11.50;99.90;;;;;;4902062;29;20062;-79
2023/12/12 04:45:09;;;;;;;18.45;4.90;;;11.40;99.90;;;;;;4901155;29;20451;-79
2023/12/12 04:47:35;;;;;;;14.68;4.88;;;11.50;99.90;;;;;;4905320;29;20028;-79
2023/12/12 04:50:01;;;;;;;16.92;5.18;;;11.50;99.90;;;;;;4905020;29;20123;-80
2023/12/12 04:52:27;;;;;;;25.08;5.47;;;11.50;99.90;;;;;;4903732;29;20489;-80
2023/12/12 04:54:53;;;;;;;19.77;5.35;;;11.50;99.90;;;;;;4905625;29;20562;-79
2023/12/12 04:57:19;;;;;;;19.85;5.82;;;11.60;99.90;;;;;;4905241;29;20488;-80
2023/12/12 04:59:45;;;;;;;27.38;6.30;;;11.50;99.90;;;;;;4902517;29;20036;-80
2023/12/12 05:02:10;;;;;;;23.98;6.38;;;11.50;99.90;;;;;;4905519;29;20043;-80
2023/12/12 05:04:37;;;;;;;15.10;4.00;;;11.60;99.90;;;;;;4905229;29;20060;-79
2023/12/12 05:07:04;;;;;;;17.58;4.15;;;11.60;99.90;;;;;;4905770;29;20024;-80
2023/12/12 05:09:29;;;;;;;12.80;3.55;;;11.60;99.90;;;;;;4905424;29;20025;-80
2023/12/12 05:11:55;;;;;;;11.90;3.13;;;11.60;99.90;;;;;;4905436;29;20043;-81
2023/12/12 05:14:21;;;;;;;11.80;3.00;;;11.60;99.90;;;;;;4902358;29;20043;-81
2023/12/12 05:16:47;;;;;;;10.55;2.33;;;11.60;99.90;;;;;;4903700;29;20046;-81
2023/12/12 05:19:14;;;;;;;12.52;2.67;;;11.50;99.90;;;;;;4905849;29;20396;-82
2023/12/12 05:21:39;;;;;;;6.70;1.92;;;11.60;99.90;;;;;;4904532;29;20063;-80
2023/12/12 05:24:06;;;;;;;9.18;2.00;;;11.60;99.90;;;;;;4906711;29;20107;-81
2023/12/12 05:26:31;;;;;;;8.48;2.90;;;11.60;99.90;;;;;;4904436;29;20111;-79
2023/12/12 05:28:57;;;;;;;5.63;1.70;;;11.50;99.90;;;;;;4901248;29;20520;-79
2023/12/12 05:31:24;;;;;;;2.92;1.08;;;11.40;99.90;;;;;;4904675;29;20969;-80
2023/12/12 05:33:49;;;;;;;4.80;1.42;;;11.40;99.90;;;;;;4907826;29;20028;-81
2023/12/12 05:36:15;;;;;;;4.03;1.30;;;11.30;99.90;;;;;;4903841;29;20043;-81
2023/12/12 05:38:41;;;;;;;4.57;1.20;;;11.20;99.90;;;;;;4904044;29;20404;-81
2023/12/12 05:41:06;;;;;;;5.10;1.15;;;11.20;99.90;;;;;;4904507;29;20119;-81
2023/12/12 05:43:32;;;;;;;2.78;1.17;;;11.20;99.90;;;;;;4902297;29;20103;-81
2023/12/12 05:45:59;;;;;;;2.80;1.25;;;11.20;99.90;;;;;;4900046;29;20028;-82
2023/12/12 05:48:24;;;;;;;5.38;1.45;;;11.10;99.90;;;;;;4904270;29;20062;-82
2023/12/12 05:50:50;;;;;;;4.85;1.50;;;11.20;99.90;;;;;;4902936;29;20499;-82
2023/12/12 05:53:16;;;;;;;7.78;2.00;;;11.20;99.90;;;;;;4901831;29;20036;-82
2023/12/12 05:55:42;;;;;;;6.43;2.08;;;11.20;99.90;;;;;;4899736;29;20040;-82
2023/12/12 05:58:07;;;;;;;12.35;2.30;;;11.20;99.90;;;;;;4901098;29;20448;-82
2023/12/12 06:00:33;;;;;;;4.60;2.10;;;11.30;99.90;;;;;;4898021;29;20067;-82
2023/12/12 06:02:58;;;;;;;7.65;2.58;;;11.20;99.90;;;;;;4904555;29;20028;-82
2023/12/12 06:05:24;;;;;;;11.45;2.53;;;11.30;99.90;;;;;;4902324;29;20201;-82
2023/12/12 06:07:50;;;;;;;9.23;2.45;;;11.30;99.90;;;;;;4906314;29;20095;-82
2023/12/12 06:10:15;;;;;;;8.38;2.58;;;11.40;99.90;;;;;;4904672;29;20051;-81
2023/12/12 06:12:41;;;;;;;9.05;2.90;;;11.50;99.90;;;;;;4902508;29;20657;-80
2023/12/12 06:15:07;;;;;;;11.60;2.70;;;11.40;99.90;;;;;;4905797;29;20460;-80
2023/12/12 06:17:34;;;;;;;12.23;3.17;;;11.30;99.90;;;;;;4901101;29;20040;-80
2023/12/12 06:20:00;;;;;;;19.45;3.35;;;11.50;99.90;;;;;;4904268;29;20127;-81
2023/12/12 06:22:25;;;;;;;12.43;2.70;;;11.50;99.90;;;;;;4904175;29;20042;-82
2023/12/12 06:24:51;;;;;;;7.78;2.45;;;11.50;99.90;;;;;;4903865;29;20067;-82
2023/12/12 06:27:17;;;;;;;16.08;3.80;;;11.40;99.90;;;;;;4900795;29;20457;-84
2023/12/12 06:30:38;;;;;;;17.45;2.70;;;11.20;99.90;;;;;;4907679;29;20032;-91
2023/12/12 06:32:36;;;;;;;8.63;1.85;;;11.30;99.90;;;;;;4899649;29;20062;-89
2023/12/12 06:35:04;;;;;;;8.40;1.80;;;11.30;99.90;;;;;;4905567;29;20028;-90
2023/12/12 06:37:29;;;;;;;5.68;1.45;;;11.20;99.90;;;;;;4902913;29;20183;-89
2023/12/12 06:39:55;;;;;;;4.97;1.00;;;11.20;99.90;;;;;;4902191;29;20489;-89
2023/12/12 06:42:21;;;;;;;1.85;0.95;;;11.10;99.90;;;;;;4905437;29;20031;-89
2023/12/12 06:44:46;;;;;;;3.40;1.08;;;11.10;99.90;;;;;;4907954;29;20563;-89
2023/12/12 06:47:12;;;;;;;2.65;1.05;;;11.10;99.90;;;;;;4900517;29;20036;-90
2023/12/12 06:49:38;;;;;;;5.38;1.00;;;11.10;99.90;;;;;;4901747;29;20046;-90
2023/12/12 06:52:04;;;;;;;2.58;1.20;;;11.10;99.90;;;;;;4904506;29;20547;-89
2023/12/12 06:54:30;;;;;;;9.50;1.80;;;11.10;99.90;;;;;;4904453;29;20063;-89
2023/12/12 06:56:55;;;;;;;4.00;1.40;;;11.20;99.90;;;;;;4902678;29;20445;-88
2023/12/12 06:59:21;;;;;;;7.95;1.88;;;11.10;99.90;;;;;;4900080;29;20043;-89
2023/12/12 07:01:47;;;;;;;7.03;1.60;;;11.00;99.90;;;;;;4901391;29;20500;-88
2023/12/12 07:04:12;;;;;;;8.50;2.22;;;11.00;99.90;;;;;;4902228;29;20123;-88
2023/12/12 07:06:41;;;;;;;5.30;1.60;;;11.00;99.90;;;;;;4904152;29;20480;-93
2023/12/12 07:09:10;;;;;;;4.60;1.38;;;11.00;99.90;;;;;;4904309;29;20051;-87
2023/12/12 07:11:37;;;;;;;5.50;1.48;;;11.00;99.90;;;;;;4899333;29;20468;-91
2023/12/12 07:14:03;;;;;;;6.13;1.50;;;11.00;99.90;;;;;;4907498;29;20149;-89
2023/12/12 07:16:29;;;;;;;6.95;1.63;;;10.90;99.90;;;;;;4910279;29;20023;-89
2023/12/12 07:19:12;;;;;;;9.02;1.80;;;10.90;99.90;;;;;;4904576;29;20559;-91
2023/12/12 07:21:45;;;;;;;7.40;1.52;;;10.90;99.90;;;;;;4904742;29;20047;-91
2023/12/12 07:24:17;;;;;;;8.25;1.60;;;10.80;99.90;;;;;;4904071;29;20032;-89
2023/12/12 07:27:34;;;;;;;6.10;2.00;;;10.80;99.90;;;;;;4899799;29;20024;-89
2023/12/12 07:34:03;;;;;;;;;;;;;;;;;;;;;
2023/12/12 07:39:47;;;;;;;;;;;;;;;;;;;;;
2023/12/12 07:43:49;;;;;;;11.50;2.85;;;11.00;99.90;;;;;;4879122;29;20252;-90
2023/12/12 07:50:04;;;;;;;;;;;;;;;;;;;;;
2023/12/12 08:02:52;;;;;;;33.33;5.30;;;10.80;99.90;;;;;;4845019;29;20074;-90
2023/12/12 08:05:18;;;;;;;25.88;4.22;;;10.80;99.90;;;;;;4886719;29;20093;-90
2023/12/12 08:07:44;;;;;;;28.98;4.35;;;10.90;99.90;;;;;;4898271;29;20032;-90
2023/12/12 08:10:36;;;;;;;33.75;4.70;;;10.90;99.90;;;;;;4889770;29;20042;-90
2023/12/12 08:13:03;;;;;;;32.60;4.88;;;10.80;99.90;;;;;;4894370;29;20051;-91
2023/12/12 08:15:29;;;;;;;31.17;5.80;;;10.80;99.90;;;;;;4890147;29;20096;-90
2023/12/12 08:18:03;;;;;;;30.58;4.63;;;10.80;99.90;;;;;;4869639;29;20601;-91
2023/12/12 08:20:29;;;;;;;35.90;5.38;;;10.80;99.90;;;;;;4885305;29;20033;-91
2023/12/12 08:22:56;;;;;;;31.95;4.72;;;10.80;99.90;;;;;;4891302;29;20378;-91
2023/12/12 08:25:22;;;;;;;38.60;6.07;;;10.80;99.90;;;;;;4893326;29;20870;-88
2023/12/12 08:27:48;;;;;;;30.70;4.97;;;10.80;99.90;;;;;;4895706;29;20654;-87
2023/12/12 08:30:13;;;;;;;38.88;5.15;;;10.80;99.90;;;;;;4889108;29;20115;-88
2023/12/12 08:32:39;;;;;;;42.25;5.65;;;10.90;99.90;;;;;;4896255;29;20040;-89
2023/12/12 08:35:06;;;;;;;24.85;3.85;;;10.80;99.90;;;;;;4889997;29;20055;-89
2023/12/12 08:37:32;;;;;;;26.08;3.95;;;10.90;99.90;;;;;;4886703;29;20097;-89
2023/12/12 08:42:28;;;;;;;31.35;4.28;;;10.90;99.90;;;;;;4895821;29;20117;-94
2023/12/12 08:43:43;;;;;;;36.22;4.20;;;10.90;99.90;;;;;;4846143;29;20062;-92
2023/12/12 08:46:08;;;;;;;22.67;4.32;;;10.90;99.90;;;;;;4889318;29;20305;-88
2023/12/12 08:48:34;;;;;;;26.77;3.47;;;10.80;99.90;;;;;;4883989;29;20036;-90
2023/12/12 08:51:10;;;;;;;24.20;3.25;;;10.80;99.90;;;;;;4885620;29;20032;-93
2023/12/12 08:53:42;;;;;;;30.23;3.80;;;10.80;99.90;;;;;;4888842;29;20307;-93
2023/12/12 08:56:16;;;;;;;26.45;3.90;;;10.70;99.90;;;;;;4894458;29;20443;-90
2023/12/12 08:58:43;;;;;;;24.10;3.53;;;10.70;99.90;;;;;;4887997;29;20218;-88
2023/12/12 09:01:09;;;;;;;28.52;3.53;;;10.70;99.90;;;;;;4895320;29;20373;-89
2023/12/12 09:03:46;;;;;;;20.90;3.22;;;10.70;99.90;;;;;;4908624;29;20060;-92
2023/12/12 09:06:12;;;;;;;33.08;4.32;;;10.90;99.90;;;;;;4891971;29;20034;-89
2023/12/12 09:08:53;;;;;;;25.17;3.92;;;10.90;99.90;;;;;;4883563;29;20044;-90
2023/12/12 09:12:09;;;;;;;26.92;4.25;;;10.90;99.90;;;;;;4886070;29;20428;-91
2023/12/12 10:10:05;;;;;;;28.00;3.58;;;11.40;99.90;;;;;;4954756;28;20070;-88
2023/12/12 10:12:31;;;;;;;25.15;3.72;;;11.30;99.90;;;;;;4860829;29;20056;-85
2023/12/12 10:14:57;;;;;;;29.38;4.15;;;11.20;99.90;;;;;;4862192;29;20029;-84
2023/12/12 10:17:25;;;;;;;22.63;4.00;;;11.20;99.90;;;;;;4847317;29;20168;-81
2023/12/12 10:20:06;;;;;;;42.20;5.00;;;11.20;99.90;;;;;;4845937;29;20088;-81
2023/12/12 10:22:31;;;;;;;15.02;3.03;;;11.30;99.90;;;;;;4850447;29;20132;-84
2023/12/12 10:25:14;;;;;;;28.80;3.90;;;11.30;99.90;;;;;;4849480;29;20477;-82
2023/12/12 10:27:42;;;;;;;27.83;3.50;;;11.40;99.90;;;;;;4851485;29;20115;-83
2023/12/12 10:30:08;;;;;;;24.45;2.63;;;11.40;99.90;;;;;;4846706;29;20116;-80
2023/12/12 10:32:37;;;;;;;22.15;3.00;;;11.40;99.90;;;;;;4857615;29;20333;-82
2023/12/12 10:35:02;;;;;;;19.98;2.85;;;11.20;99.90;;;;;;4850223;29;20029;-82
2023/12/12 10:37:28;;;;;;;13.00;2.53;;;11.10;99.90;;;;;;4845946;29;20043;-82
2023/12/12 10:39:53;;;;;;;18.88;3.22;;;11.10;99.90;;;;;;4852100;29;20044;-82
2023/12/12 10:42:19;;;;;;;21.50;3.08;;;11.20;99.90;;;;;;4851135;29;20119;-83
2023/12/12 10:44:54;;;;;;;21.13;2.70;;;11.10;99.90;;;;;;4852719;29;20040;-84
2023/12/12 10:47:20;;;;;;;15.63;3.13;;;11.20;99.90;;;;;;4854927;29;20060;-81
2023/12/12 10:49:48;;;;;;;19.30;3.10;;;11.10;99.90;;;;;;4851809;29;20048;-83
2023/12/12 10:52:15;;;;;;;19.40;2.55;;;11.10;99.90;;;;;;4853275;29;20048;-85
2023/12/12 10:54:43;;;;;;;26.83;2.78;;;11.30;99.90;;;;;;4849713;29;20045;-86
2023/12/12 10:57:10;;;;;;;22.05;3.38;;;11.20;99.90;;;;;;4850515;29;20127;-82
2023/12/12 10:59:39;;;;;;;35.40;3.58;;;11.30;99.90;;;;;;4846583;29;20075;-82
2023/12/12 11:02:05;;;;;;;24.25;3.13;;;11.30;99.90;;;;;;4850806;29;20032;-81
2023/12/12 11:04:33;;;;;;;20.15;3.70;;;11.10;99.90;;;;;;4843709;29;20093;-79
2023/12/12 11:06:59;;;;;;;38.60;4.75;;;11.20;99.90;;;;;;4843948;29;20670;-80
2023/12/12 11:09:25;;;;;;;31.65;3.97;;;11.10;99.90;;;;;;4846962;29;20040;-81
2023/12/12 11:11:52;;;;;;;13.13;2.60;;;11.10;99.90;;;;;;4858018;29;20056;-82
2023/12/12 11:14:19;;;;;;;14.30;1.85;;;10.70;99.90;;;;;;4872636;29;20033;-86
2023/12/12 11:20:45;;;;;;;4.68;0.70;;;9.60;99.90;;;;;;4876524;29;20207;-92
2023/12/12 11:23:31;;;;;;;5.93;0.77;;;9.10;99.90;;;;;;4869217;29;20190;-91
2023/12/12 11:29:27;;;;;;;9.15;1.40;;;9.00;99.90;;;;;;4866968;29;20424;-88
2023/12/12 11:32:08;;;;;;;6.60;1.23;;;8.90;99.90;;;;;;4858851;29;20886;-90
2023/12/12 11:34:41;;;;;;;11.65;2.95;;;9.00;99.90;;;;;;4866536;29;20575;-94
2023/12/12 11:37:08;;;;;;;9.23;1.38;;;8.90;99.90;;;;;;4871234;29;21175;-91
2023/12/12 11:39:37;;;;;;;11.13;1.75;;;8.90;99.90;;;;;;4869589;29;20036;-87
2023/12/12 11:42:04;;;;;;;9.10;1.20;;;8.90;99.90;;;;;;4866117;29;20578;-89
2023/12/12 11:45:02;;;;;;;7.15;1.40;;;9.00;99.90;;;;;;4865258;29;20048;-92
2023/12/12 11:47:30;;;;;;;7.57;1.10;;;9.00;99.90;;;;;;4867781;29;20088;-89
2023/12/12 11:50:19;;;;;;;9.65;2.08;;;9.00;99.90;;;;;;4872833;29;20148;-92
2023/12/12 11:52:51;;;;;;;8.75;1.23;;;8.90;99.90;;;;;;4868065;29;20141;-91
2023/12/12 11:55:18;;;;;;;3.33;1.00;;;9.00;99.90;;;;;;4865928;29;20040;-91
2023/12/12 11:57:45;;;;;;;9.88;1.05;;;9.00;99.90;;;;;;4867586;29;20697;-90
2023/12/12 12:00:16;;;;;;;5.32;0.75;;;9.00;99.90;;;;;;4872070;29;20067;-90
2023/12/12 12:02:44;;;;;;;7.05;1.30;;;9.00;99.90;;;;;;4865652;29;20077;-90
2023/12/12 12:05:10;;;;;;;12.18;1.00;;;9.10;99.90;;;;;;4863335;29;20123;-88
2023/12/12 12:07:39;;;;;;;7.00;1.90;;;9.10;99.90;;;;;;4867502;29;20032;-90
2023/12/12 12:10:08;;;;;;;8.43;1.83;;;9.00;99.90;;;;;;4868519;29;20477;-89
2023/12/12 12:12:34;;;;;;;14.60;2.80;;;9.00;99.90;;;;;;4874014;29;20103;-90
2023/12/12 12:15:06;;;;;;;5.45;1.00;;;8.90;99.90;;;;;;4870111;29;20535;-91
2023/12/12 12:17:34;;;;;;;5.32;1.02;;;8.90;99.90;;;;;;4869694;29;20129;-91
2023/12/12 12:19:59;;;;;;;7.63;0.80;;;8.90;99.90;;;;;;4871655;29;20400;-90
2023/12/12 12:22:25;;;;;;;6.05;0.85;;;8.90;99.90;;;;;;4874485;29;20033;-91
2023/12/12 12:24:51;;;;;;;4.80;0.75;;;8.90;99.90;;;;;;4870414;29;20240;-91
2023/12/12 12:27:16;;;;;;;5.15;1.13;;;9.00;99.90;;;;;;4871708;29;20040;-89
2023/12/12 12:29:56;;;;;;;4.95;1.10;;;9.00;99.90;;;;;;4873037;29;20041;-90
2023/12/12 12:32:22;;;;;;;6.88;1.00;;;8.90;99.90;;;;;;4869098;29;20032;-91
2023/12/12 12:34:48;;;;;;;7.10;0.88;;;9.00;99.90;;;;;;4875041;29;20235;-93
2023/12/12 12:37:36;;;;;;;5.57;0.85;;;9.10;99.90;;;;;;4873350;29;20123;-91
2023/12/12 12:40:05;;;;;;;11.38;1.23;;;9.00;99.90;;;;;;4869921;29;20230;-93
2023/12/12 12:42:38;;;;;;;9.50;1.50;;;9.00;99.90;;;;;;4875243;29;20033;-91
2023/12/12 12:45:09;;;;;;;11.45;1.23;;;9.00;99.90;;;;;;4875867;29;20035;-94
2023/12/12 12:47:35;;;;;;;12.93;1.35;;;9.20;99.90;;;;;;4877493;29;20282;-93
2023/12/12 12:50:03;;;;;;;8.75;2.33;;;9.10;99.90;;;;;;4871066;29;20149;-95
2023/12/12 12:58:39;;;;;;;15.48;2.03;;;9.10;99.90;;;;;;4894494;29;20150;-92
2023/12/12 13:01:08;;;;;;;9.80;1.60;;;8.90;99.90;;;;;;4886046;29;20032;-92
2023/12/12 13:03:54;;;;;;;11.52;1.60;;;9.00;99.90;;;;;;4890884;29;20035;-93
2023/12/12 13:06:24;;;;;;;12.32;1.58;;;8.90;99.90;;;;;;4891121;29;20174;-91
2023/12/12 13:09:04;;;;;;;5.80;1.10;;;8.90;99.90;;;;;;4889332;29;20229;-92
2023/12/12 13:11:33;;;;;;;8.27;1.00;;;8.70;99.90;;;;;;4888287;29;20345;-92
2023/12/12 13:14:49;;;;;;;11.32;0.93;;;8.70;99.90;;;;;;4911672;29;20051;-92
2023/12/12 13:17:53;;;;;;;6.00;1.13;;;8.80;99.90;;;;;;4910449;29;20059;-96
2023/12/12 13:20:19;;;;;;;7.07;1.10;;;9.10;99.90;;;;;;4881698;29;20025;-90
2023/12/12 13:23:19;;;;;;;10.30;1.40;;;9.10;99.90;;;;;;4892928;29;20532;-96
2023/12/12 13:25:48;;;;;;;9.57;1.40;;;9.30;99.90;;;;;;4900145;29;20039;-91
2023/12/12 13:28:50;;;;;;;11.45;2.00;;;9.30;99.90;;;;;;4903556;29;20099;-92
2023/12/12 13:31:20;;;;;;;8.38;1.55;;;9.30;99.90;;;;;;4905847;29;20052;-92
2023/12/12 13:33:58;;;;;;;11.07;1.55;;;9.30;99.90;;;;;;5404619;23;20226;-93
2023/12/12 13:36:27;;;;;;;17.77;2.90;;;9.20;99.90;;;;;;4913881;29;20028;-91
2023/12/12 13:38:55;;;;;;;16.80;2.45;;;9.30;99.90;;;;;;4904626;29;20489;-92
2023/12/12 13:44:24;;;;;;;19.65;2.35;;;9.50;99.90;;;;;;4902190;29;20047;-93
2023/12/12 13:47:02;;;;;;;19.63;2.55;;;9.60;99.90;;;;;;4896987;29;20038;-91
2023/12/12 13:49:56;;;;;;;30.38;3.75;;;9.60;99.90;;;;;;4896303;29;20088;-95
2023/12/12 13:52:29;;;;;;;12.23;1.42;;;9.70;99.90;;;;;;4893107;29;20051;-94
2023/12/12 13:55:00;;;;;;;11.55;1.10;;;9.10;99.90;;;;;;4874854;29;20086;-93
2023/12/12 13:57:26;;;;;;;8.05;1.02;;;8.40;99.90;;;;;;4901270;29;20051;-93
2023/12/12 13:59:52;;;;;;;6.05;1.10;;;8.10;99.90;;;;;;4890181;29;20107;-94
2023/12/12 14:02:17;;;;;;;8.20;1.15;;;8.00;99.90;;;;;;4893007;29;21191;-92
2023/12/12 14:04:43;;;;;;;5.25;1.02;;;8.10;99.90;;;;;;4855960;29;20135;-94
2023/12/12 14:07:09;;;;;;;10.63;1.20;;;8.20;99.90;;;;;;4847594;29;20136;-91
2023/12/12 14:09:35;;;;;;;6.03;1.55;;;8.30;99.90;;;;;;4879673;29;20559;-92
2023/12/12 14:12:01;;;;;;;10.65;1.45;;;8.40;99.90;;;;;;4886056;29;20781;-91
2023/12/12 14:14:28;;;;;;;16.88;1.55;;;8.60;99.90;;;;;;4884652;29;20256;-90
2023/12/12 14:16:54;;;;;;;17.40;1.83;;;8.70;99.90;;;;;;4887375;29;20032;-92
2023/12/12 14:19:20;;;;;;;16.40;2.03;;;8.90;99.90;;;;;;4882305;29;20298;-92
2023/12/12 14:21:48;;;;;;;18.65;2.03;;;9.10;99.90;;;;;;4872460;29;20182;-91
2023/12/12 14:24:13;;;;;;;14.57;2.20;;;9.10;99.90;;;;;;4883453;29;20064;-91
2023/12/12 14:26:40;;;;;;;18.50;2.40;;;9.10;99.90;;;;;;4888496;29;20123;-93